createdAt,value
2022-11-18T00:00:15.025Z,936.61
2022-11-18T00:01:15.040Z,936.66
2022-11-18T00:02:15.136Z,936.64
2022-11-18T00:03:15.076Z,936.62
2022-11-18T00:04:15.090Z,936.64
2022-11-18T00:05:15.114Z,936.62
2022-11-18T00:06:15.118Z,936.62
2022-11-18T00:07:15.184Z,936.59
2022-11-18T00:08:15.159Z,936.62
2022-11-18T00:09:15.395Z,936.64
2022-11-18T00:10:15.181Z,936.68
2022-11-18T00:11:15.199Z,936.70
2022-11-18T00:12:15.216Z,936.66
2022-11-18T00:13:34.441Z,936.69
2022-11-18T00:14:40.917Z,936.67
2022-11-18T00:15:15.261Z,936.70
2022-11-18T00:16:15.279Z,936.67
2022-11-18T00:17:15.295Z,936.65
2022-11-18T00:18:15.306Z,936.64
2022-11-18T00:19:15.802Z,936.66
2022-11-18T00:20:15.341Z,936.66
2022-11-18T00:21:15.358Z,936.67
2022-11-18T00:22:15.372Z,936.70
2022-11-18T00:23:15.386Z,936.69
2022-11-18T00:24:15.404Z,936.75
2022-11-18T00:25:15.440Z,936.70
2022-11-18T00:26:15.436Z,936.69
2022-11-18T00:27:15.452Z,936.68
2022-11-18T00:28:15.463Z,936.67
2022-11-18T00:29:15.855Z,936.67
2022-11-18T00:30:15.494Z,936.70
2022-11-18T00:31:15.512Z,936.67
2022-11-18T00:32:15.529Z,936.70
2022-11-18T00:33:15.545Z,936.70
2022-11-18T00:34:15.557Z,936.69
2022-11-18T00:35:15.574Z,936.73
2022-11-18T00:36:15.594Z,936.73
2022-11-18T00:37:15.605Z,936.74
2022-11-18T00:38:15.622Z,936.75
2022-11-18T00:39:15.981Z,936.73
2022-11-18T00:40:15.649Z,936.69
2022-11-18T00:41:15.687Z,936.70
2022-11-18T00:42:15.686Z,936.68
2022-11-18T00:43:15.699Z,936.70
2022-11-18T00:44:15.711Z,936.72
2022-11-18T00:45:15.728Z,936.66
2022-11-18T00:46:15.745Z,936.73
2022-11-18T00:47:15.761Z,936.73
2022-11-18T00:48:15.775Z,936.74
2022-11-18T00:49:16.290Z,936.79
2022-11-18T00:50:15.808Z,936.70
2022-11-18T00:51:15.823Z,936.66
2022-11-18T00:52:15.837Z,936.68
2022-11-18T00:53:15.853Z,936.66
2022-11-18T00:54:16.476Z,936.67
2022-11-18T00:55:15.883Z,936.66
2022-11-18T00:56:15.900Z,936.67
2022-11-18T00:57:15.936Z,936.70
2022-11-18T00:58:15.932Z,936.69
2022-11-18T00:59:16.361Z,936.67
2022-11-18T01:00:15.962Z,936.66
2022-11-18T01:01:16.036Z,936.68
2022-11-18T01:02:15.992Z,936.65
2022-11-18T01:03:16.012Z,936.62
2022-11-18T01:04:16.023Z,936.62
2022-11-18T01:05:16.037Z,936.64
2022-11-18T01:06:16.055Z,936.62
2022-11-18T01:07:16.188Z,936.62
2022-11-18T01:08:16.086Z,936.57
2022-11-18T01:09:16.491Z,936.57
2022-11-18T01:10:16.119Z,936.52
2022-11-18T01:11:16.135Z,936.58
2022-11-18T01:12:16.150Z,936.59
2022-11-18T01:13:16.187Z,936.60
2022-11-18T01:14:16.182Z,936.57
2022-11-18T01:15:16.193Z,936.57
2022-11-18T01:16:19.251Z,936.53
2022-11-18T01:17:50.659Z,936.55
2022-11-18T01:18:19.284Z,936.56
2022-11-18T01:19:16.697Z,936.55
2022-11-18T01:20:16.272Z,936.55
2022-11-18T01:21:29.029Z,936.48
2022-11-18T01:22:16.305Z,936.47
2022-11-18T01:23:16.320Z,936.44
2022-11-18T01:24:16.541Z,936.48
2022-11-18T01:25:26.629Z,936.48
2022-11-18T01:26:17.604Z,936.47
2022-11-18T01:27:16.389Z,936.46
2022-11-18T01:28:42.095Z,936.42
2022-11-18T01:29:17.886Z,936.41
2022-11-18T01:30:16.428Z,936.42
2022-11-18T01:31:16.444Z,936.42
2022-11-18T01:32:24.641Z,936.41
2022-11-18T01:33:16.480Z,936.40
2022-11-18T01:34:29.241Z,936.36
2022-11-18T01:35:16.514Z,936.45
2022-11-18T01:36:17.733Z,936.42
2022-11-18T01:37:27.016Z,936.41
2022-11-18T01:38:16.551Z,936.40
2022-11-18T01:39:19.773Z,936.41
2022-11-18T01:40:19.620Z,936.38
2022-11-18T01:41:19.637Z,936.34
2022-11-18T01:42:17.833Z,936.39
2022-11-18T01:43:17.864Z,936.38
2022-11-18T01:44:16.680Z,936.34
2022-11-18T01:45:27.010Z,936.35
2022-11-18T01:46:16.673Z,936.39
2022-11-18T01:47:16.694Z,936.38
2022-11-18T01:48:21.771Z,936.33
2022-11-18T01:49:17.086Z,936.33
2022-11-18T01:50:16.735Z,936.32
2022-11-18T01:51:35.963Z,936.29
2022-11-18T01:52:45.269Z,936.32
2022-11-18T01:53:23.059Z,936.32
2022-11-18T01:54:16.795Z,936.36
2022-11-18T01:55:16.812Z,936.31
2022-11-18T01:56:16.827Z,936.31
2022-11-18T01:57:16.845Z,936.30
2022-11-18T01:58:16.856Z,936.32
2022-11-18T01:59:17.110Z,936.30
2022-11-18T02:00:16.906Z,936.31
2022-11-18T02:01:18.178Z,936.32
2022-11-18T02:02:16.926Z,936.28
2022-11-18T02:03:16.944Z,936.27
2022-11-18T02:04:19.994Z,936.23
2022-11-18T02:05:16.964Z,936.21
2022-11-18T02:06:16.979Z,936.19
2022-11-18T02:07:17.037Z,936.19
2022-11-18T02:08:17.015Z,936.20
2022-11-18T02:09:17.273Z,936.18
2022-11-18T02:10:20.080Z,936.15
2022-11-18T02:11:23.331Z,936.15
2022-11-18T02:12:17.156Z,936.15
2022-11-18T02:13:17.087Z,936.11
2022-11-18T02:14:17.106Z,936.08
2022-11-18T02:15:17.121Z,936.06
2022-11-18T02:16:17.158Z,936.09
2022-11-18T02:17:17.157Z,936.04
2022-11-18T02:18:18.405Z,936.06
2022-11-18T02:19:27.588Z,936.03
2022-11-18T02:20:17.198Z,936.02
2022-11-18T02:21:20.252Z,936.02
2022-11-18T02:22:17.224Z,936.04
2022-11-18T02:23:17.250Z,935.99
2022-11-18T02:24:17.257Z,936.02
2022-11-18T02:25:17.276Z,936.01
2022-11-18T02:26:17.288Z,935.99
2022-11-18T02:27:17.301Z,936.01
2022-11-18T02:28:17.318Z,936.00
2022-11-18T02:29:17.562Z,935.99
2022-11-18T02:30:17.358Z,935.97
2022-11-18T02:31:17.369Z,935.92
2022-11-18T02:32:22.451Z,935.96
2022-11-18T02:33:17.405Z,935.94
2022-11-18T02:34:17.416Z,935.94
2022-11-18T02:35:17.429Z,935.95
2022-11-18T02:36:17.446Z,935.96
2022-11-18T02:37:17.460Z,935.93
2022-11-18T02:38:17.480Z,935.91
2022-11-18T02:39:17.859Z,935.96
2022-11-18T02:40:22.561Z,935.95
2022-11-18T02:41:28.035Z,935.92
2022-11-18T02:42:22.596Z,935.90
2022-11-18T02:43:17.556Z,935.88
2022-11-18T02:44:17.576Z,935.88
2022-11-18T02:45:17.592Z,935.85
2022-11-18T02:46:17.597Z,935.83
2022-11-18T02:47:17.613Z,935.82
2022-11-18T02:48:17.651Z,935.84
2022-11-18T02:49:17.984Z,935.78
2022-11-18T02:50:17.871Z,935.81
2022-11-18T02:51:17.675Z,935.79
2022-11-18T02:52:17.689Z,935.77
2022-11-18T02:53:17.707Z,935.76
2022-11-18T02:54:17.919Z,935.75
2022-11-18T02:55:17.741Z,935.77
2022-11-18T02:56:17.751Z,935.70
2022-11-18T02:57:17.766Z,935.68
2022-11-18T02:58:17.782Z,935.67
2022-11-18T02:59:18.114Z,935.68
2022-11-18T03:00:17.812Z,935.65
2022-11-18T03:01:17.873Z,935.61
2022-11-18T03:02:17.840Z,935.58
2022-11-18T03:03:17.855Z,935.60
2022-11-18T03:04:18.004Z,935.50
2022-11-18T03:05:17.887Z,935.48
2022-11-18T03:06:17.902Z,935.50
2022-11-18T03:07:17.990Z,935.45
2022-11-18T03:08:17.934Z,935.46
2022-11-18T03:09:18.332Z,935.45
2022-11-18T03:10:17.960Z,935.45
2022-11-18T03:11:17.976Z,935.43
2022-11-18T03:12:17.996Z,935.42
2022-11-18T03:13:18.049Z,935.42
2022-11-18T03:14:18.022Z,935.43
2022-11-18T03:15:18.040Z,935.44
2022-11-18T03:16:18.053Z,935.45
2022-11-18T03:17:18.068Z,935.43
2022-11-18T03:18:18.083Z,935.39
2022-11-18T03:19:18.454Z,935.39
2022-11-18T03:20:18.139Z,935.42
2022-11-18T03:21:18.133Z,935.35
2022-11-18T03:22:18.146Z,935.35
2022-11-18T03:23:18.162Z,935.37
2022-11-18T03:24:18.178Z,935.34
2022-11-18T03:25:18.188Z,935.32
2022-11-18T03:26:18.211Z,935.32
2022-11-18T03:27:18.222Z,935.26
2022-11-18T03:28:18.240Z,935.26
2022-11-18T03:29:18.466Z,935.23
2022-11-18T03:30:18.268Z,935.23
2022-11-18T03:31:18.279Z,935.22
2022-11-18T03:32:18.296Z,935.17
2022-11-18T03:33:18.308Z,935.20
2022-11-18T03:34:18.323Z,935.17
2022-11-18T03:35:18.345Z,935.21
2022-11-18T03:36:18.382Z,935.22
2022-11-18T03:37:18.374Z,935.16
2022-11-18T03:38:18.402Z,935.15
2022-11-18T03:39:18.617Z,935.13
2022-11-18T03:40:18.417Z,935.14
2022-11-18T03:41:18.432Z,935.07
2022-11-18T03:42:18.447Z,935.04
2022-11-18T03:43:18.460Z,935.05
2022-11-18T03:44:18.474Z,935.01
2022-11-18T03:45:18.490Z,935.04
2022-11-18T03:46:18.508Z,934.99
2022-11-18T03:47:18.521Z,935.02
2022-11-18T03:48:18.539Z,934.96
2022-11-18T03:49:19.036Z,934.97
2022-11-18T03:50:18.571Z,934.90
2022-11-18T03:51:18.583Z,934.89
2022-11-18T03:52:18.619Z,934.88
2022-11-18T03:53:18.610Z,934.87
2022-11-18T03:54:18.628Z,934.86
2022-11-18T03:55:18.641Z,934.85
2022-11-18T03:56:18.654Z,934.77
2022-11-18T03:57:18.672Z,934.80
2022-11-18T03:58:18.688Z,934.79
2022-11-18T03:59:19.129Z,934.77
2022-11-18T04:00:18.716Z,934.72
2022-11-18T04:01:18.809Z,934.77
2022-11-18T04:02:18.804Z,934.76
2022-11-18T04:03:18.761Z,934.76
2022-11-18T04:04:18.776Z,934.69
2022-11-18T04:05:18.795Z,934.69
2022-11-18T04:06:18.804Z,934.71
2022-11-18T04:07:18.881Z,934.71
2022-11-18T04:08:18.986Z,934.73
2022-11-18T04:09:19.350Z,934.63
2022-11-18T04:10:18.865Z,934.68
2022-11-18T04:11:18.883Z,934.69
2022-11-18T04:12:18.895Z,934.69
2022-11-18T04:13:18.915Z,934.74
2022-11-18T04:14:18.928Z,934.71
2022-11-18T04:15:18.941Z,934.69
2022-11-18T04:16:18.958Z,934.67
2022-11-18T04:17:18.971Z,934.67
2022-11-18T04:18:18.986Z,934.61
2022-11-18T04:19:19.271Z,934.64
2022-11-18T04:20:19.015Z,934.63
2022-11-18T04:21:19.031Z,934.60
2022-11-18T04:22:19.046Z,934.60
2022-11-18T04:23:19.062Z,934.57
2022-11-18T04:24:19.101Z,934.55
2022-11-18T04:25:19.089Z,934.55
2022-11-18T04:26:19.105Z,934.55
2022-11-18T04:27:19.128Z,934.54
2022-11-18T04:28:19.135Z,934.58
2022-11-18T04:29:19.404Z,934.56
2022-11-18T04:30:19.168Z,934.57
2022-11-18T04:31:19.186Z,934.57
2022-11-18T04:32:19.193Z,934.54
2022-11-18T04:33:19.213Z,934.54
2022-11-18T04:34:19.225Z,934.53
2022-11-18T04:35:19.250Z,934.52
2022-11-18T04:36:19.261Z,934.51
2022-11-18T04:37:19.267Z,934.52
2022-11-18T04:38:22.064Z,934.49
2022-11-18T04:39:19.660Z,934.46
2022-11-18T04:40:19.335Z,934.47
2022-11-18T04:41:19.331Z,934.49
2022-11-18T04:42:19.341Z,934.46
2022-11-18T04:43:19.357Z,934.46
2022-11-18T04:44:19.385Z,934.47
2022-11-18T04:45:19.388Z,934.44
2022-11-18T04:46:19.402Z,934.45
2022-11-18T04:47:19.418Z,934.46
2022-11-18T04:48:19.434Z,934.44
2022-11-18T04:49:19.856Z,934.46
2022-11-18T04:50:19.469Z,934.43
2022-11-18T04:51:19.479Z,934.45
2022-11-18T04:52:19.495Z,934.46
2022-11-18T04:53:19.508Z,934.44
2022-11-18T04:54:19.526Z,934.44
2022-11-18T04:55:19.541Z,934.44
2022-11-18T04:56:19.577Z,934.45
2022-11-18T04:57:19.568Z,934.42
2022-11-18T04:58:19.585Z,934.41
2022-11-18T04:59:20.269Z,934.37
2022-11-18T05:00:19.615Z,934.36
2022-11-18T05:01:19.697Z,934.36
2022-11-18T05:02:19.645Z,934.37
2022-11-18T05:03:19.656Z,934.37
2022-11-18T05:04:19.671Z,934.40
2022-11-18T05:05:19.689Z,934.41
2022-11-18T05:06:19.700Z,934.35
2022-11-18T05:07:19.820Z,934.39
2022-11-18T05:08:19.735Z,934.37
2022-11-18T05:09:20.209Z,934.40
2022-11-18T05:10:19.767Z,934.40
2022-11-18T05:11:19.780Z,934.36
2022-11-18T05:12:19.886Z,934.36
2022-11-18T05:13:19.805Z,934.41
2022-11-18T05:14:19.824Z,934.37
2022-11-18T05:15:19.838Z,934.41
2022-11-18T05:16:19.853Z,934.40
2022-11-18T05:17:19.871Z,934.41
2022-11-18T05:18:19.879Z,934.43
2022-11-18T05:19:20.379Z,934.39
2022-11-18T05:20:19.908Z,934.39
2022-11-18T05:21:19.926Z,934.37
2022-11-18T05:22:19.936Z,934.36
2022-11-18T05:23:19.951Z,934.35
2022-11-18T05:24:19.968Z,934.36
2022-11-18T05:25:19.991Z,934.33
2022-11-18T05:26:20.000Z,934.34
2022-11-18T05:27:20.021Z,934.32
2022-11-18T05:28:20.043Z,934.29
2022-11-18T05:29:20.240Z,934.33
2022-11-18T05:30:20.076Z,934.33
2022-11-18T05:31:20.071Z,934.30
2022-11-18T05:32:20.087Z,934.31
2022-11-18T05:33:20.105Z,934.30
2022-11-18T05:34:20.118Z,934.28
2022-11-18T05:35:20.132Z,934.26
2022-11-18T05:36:20.445Z,934.24
2022-11-18T05:37:20.161Z,934.25
2022-11-18T05:38:20.179Z,934.21
2022-11-18T05:39:20.786Z,934.24
2022-11-18T05:40:20.209Z,934.20
2022-11-18T05:41:20.223Z,934.22
2022-11-18T05:42:20.235Z,934.18
2022-11-18T05:43:20.250Z,934.23
2022-11-18T05:44:20.285Z,934.25
2022-11-18T05:45:20.281Z,934.18
2022-11-18T05:46:20.295Z,934.18
2022-11-18T05:47:20.310Z,934.21
2022-11-18T05:48:20.330Z,934.21
2022-11-18T05:49:20.645Z,934.19
2022-11-18T05:50:21.606Z,934.19
2022-11-18T05:51:20.373Z,934.22
2022-11-18T05:52:20.382Z,934.21
2022-11-18T05:53:20.398Z,934.22
2022-11-18T05:54:20.414Z,934.22
2022-11-18T05:55:20.430Z,934.21
2022-11-18T05:56:20.446Z,934.16
2022-11-18T05:57:20.457Z,934.22
2022-11-18T05:58:20.471Z,934.24
2022-11-18T05:59:20.896Z,934.25
2022-11-18T06:00:20.525Z,934.25
2022-11-18T06:01:20.516Z,934.26
2022-11-18T06:02:20.593Z,934.26
2022-11-18T06:03:20.630Z,934.24
2022-11-18T06:04:20.564Z,934.26
2022-11-18T06:05:20.580Z,934.30
2022-11-18T06:06:20.593Z,934.28
2022-11-18T06:07:20.707Z,934.32
2022-11-18T06:08:20.622Z,934.32
2022-11-18T06:09:20.638Z,934.33
2022-11-18T06:10:20.651Z,934.38
2022-11-18T06:11:20.665Z,934.33
2022-11-18T06:12:20.682Z,934.34
2022-11-18T06:13:20.692Z,934.38
2022-11-18T06:14:20.707Z,934.41
2022-11-18T06:15:20.724Z,934.44
2022-11-18T06:16:20.757Z,934.43
2022-11-18T06:17:20.751Z,934.44
2022-11-18T06:18:20.765Z,934.41
2022-11-18T06:19:20.846Z,934.37
2022-11-18T06:20:20.799Z,934.41
2022-11-18T06:21:20.811Z,934.40
2022-11-18T06:22:20.824Z,934.43
2022-11-18T06:23:20.843Z,934.45
2022-11-18T06:24:20.859Z,934.42
2022-11-18T06:25:20.874Z,934.41
2022-11-18T06:26:20.882Z,934.41
2022-11-18T06:27:20.902Z,934.41
2022-11-18T06:28:20.917Z,934.44
2022-11-18T06:29:27.251Z,934.43
2022-11-18T06:30:20.940Z,934.38
2022-11-18T06:31:20.957Z,934.38
2022-11-18T06:32:20.993Z,934.42
2022-11-18T06:33:20.992Z,934.40
2022-11-18T06:34:20.999Z,934.36
2022-11-18T06:35:21.016Z,934.39
2022-11-18T06:36:21.032Z,934.41
2022-11-18T06:37:21.043Z,934.38
2022-11-18T06:38:21.064Z,934.42
2022-11-18T06:39:21.281Z,934.38
2022-11-18T06:40:21.092Z,934.40
2022-11-18T06:41:21.108Z,934.42
2022-11-18T06:42:21.119Z,934.36
2022-11-18T06:43:21.135Z,934.37
2022-11-18T06:44:21.150Z,934.39
2022-11-18T06:45:21.253Z,934.35
2022-11-18T06:46:21.179Z,934.41
2022-11-18T06:47:21.191Z,934.44
2022-11-18T06:48:21.227Z,934.47
2022-11-18T06:49:21.221Z,934.51
2022-11-18T06:50:21.238Z,934.50
2022-11-18T06:51:21.252Z,934.49
2022-11-18T06:52:21.265Z,934.52
2022-11-18T06:53:21.282Z,934.51
2022-11-18T06:54:21.294Z,934.50
2022-11-18T06:55:21.312Z,934.51
2022-11-18T06:56:21.327Z,934.51
2022-11-18T06:57:21.342Z,934.48
2022-11-18T06:58:21.356Z,934.53
2022-11-18T06:59:21.366Z,934.51
2022-11-18T07:00:21.385Z,934.53
2022-11-18T07:01:21.427Z,934.55
2022-11-18T07:02:21.412Z,934.54
2022-11-18T07:03:21.427Z,934.52
2022-11-18T07:04:21.465Z,934.51
2022-11-18T07:05:21.460Z,934.48
2022-11-18T07:06:21.470Z,934.55
2022-11-18T07:07:21.607Z,934.52
2022-11-18T07:08:21.499Z,934.53
2022-11-18T07:09:21.630Z,934.52
2022-11-18T07:10:21.533Z,934.51
2022-11-18T07:11:21.544Z,934.51
2022-11-18T07:12:21.562Z,934.53
2022-11-18T07:13:21.573Z,934.58
2022-11-18T07:14:21.588Z,934.62
2022-11-18T07:15:21.601Z,934.61
2022-11-18T07:16:21.619Z,934.63
2022-11-18T07:17:21.635Z,934.61
2022-11-18T07:18:21.651Z,934.61
2022-11-18T07:19:21.661Z,934.67
2022-11-18T07:20:21.692Z,934.61
2022-11-18T07:21:21.693Z,934.61
2022-11-18T07:22:21.703Z,934.58
2022-11-18T07:23:21.722Z,934.59
2022-11-18T07:24:21.737Z,934.59
2022-11-18T07:25:21.746Z,934.59
2022-11-18T07:26:21.761Z,934.64
2022-11-18T07:27:21.780Z,934.64
2022-11-18T07:28:21.792Z,934.60
2022-11-18T07:29:21.810Z,934.62
2022-11-18T07:30:21.844Z,934.60
2022-11-18T07:31:21.835Z,934.61
2022-11-18T07:32:21.852Z,934.61
2022-11-18T07:33:21.864Z,934.63
2022-11-18T07:34:21.882Z,934.60
2022-11-18T07:35:21.895Z,934.59
2022-11-18T07:36:22.039Z,934.60
2022-11-18T07:37:21.925Z,934.64
2022-11-18T07:38:21.937Z,934.62
2022-11-18T07:39:21.951Z,934.62
2022-11-18T07:40:21.970Z,934.60
2022-11-18T07:41:21.985Z,934.63
2022-11-18T07:42:21.999Z,934.61
2022-11-18T07:43:22.010Z,934.65
2022-11-18T07:44:22.025Z,934.66
2022-11-18T07:45:22.040Z,934.65
2022-11-18T07:46:22.057Z,934.76
2022-11-18T07:47:22.072Z,934.70
2022-11-18T07:48:22.095Z,934.72
2022-11-18T07:49:22.104Z,934.74
2022-11-18T07:50:22.110Z,934.77
2022-11-18T07:51:22.129Z,934.75
2022-11-18T07:52:22.172Z,934.76
2022-11-18T07:53:22.158Z,934.75
2022-11-18T07:54:22.168Z,934.76
2022-11-18T07:55:22.194Z,934.75
2022-11-18T07:56:22.203Z,934.77
2022-11-18T07:57:22.218Z,934.71
2022-11-18T07:58:22.227Z,934.74
2022-11-18T07:59:22.248Z,934.76
2022-11-18T08:00:22.289Z,934.75
2022-11-18T08:01:22.339Z,934.76
2022-11-18T08:02:22.290Z,934.80
2022-11-18T08:03:22.305Z,934.78
2022-11-18T08:04:22.318Z,934.82
2022-11-18T08:05:22.350Z,934.80
2022-11-18T08:06:22.347Z,934.78
2022-11-18T08:07:22.421Z,934.80
2022-11-18T08:08:22.396Z,934.77
2022-11-18T08:09:22.388Z,934.77
2022-11-18T08:10:22.402Z,934.85
2022-11-18T08:11:23.152Z,934.86
2022-11-18T08:12:22.436Z,934.84
2022-11-18T08:13:22.451Z,934.88
2022-11-18T08:14:22.466Z,934.88
2022-11-18T08:15:22.475Z,934.91
2022-11-18T08:16:22.492Z,934.90
2022-11-18T08:17:22.506Z,934.89
2022-11-18T08:18:22.519Z,934.87
2022-11-18T08:19:22.534Z,934.93
2022-11-18T08:20:22.549Z,934.94
2022-11-18T08:21:22.564Z,934.96
2022-11-18T08:22:22.576Z,934.96
2022-11-18T08:23:26.024Z,934.96
2022-11-18T08:24:22.658Z,935.00
2022-11-18T08:25:22.620Z,934.99
2022-11-18T08:26:22.636Z,935.04
2022-11-18T08:27:22.652Z,935.03
2022-11-18T08:28:22.694Z,935.05
2022-11-18T08:29:25.379Z,935.04
2022-11-18T08:30:22.693Z,935.06
2022-11-18T08:31:22.709Z,935.07
2022-11-18T08:32:22.724Z,935.09
2022-11-18T08:33:22.735Z,935.16
2022-11-18T08:34:22.749Z,935.14
2022-11-18T08:35:22.769Z,935.16
2022-11-18T08:36:22.783Z,935.17
2022-11-18T08:37:22.800Z,935.18
2022-11-18T08:38:22.814Z,935.24
2022-11-18T08:39:22.825Z,935.18
2022-11-18T08:40:22.857Z,935.20
2022-11-18T08:41:22.856Z,935.25
2022-11-18T08:42:24.461Z,935.28
2022-11-18T08:43:22.883Z,935.25
2022-11-18T08:44:22.900Z,935.27
2022-11-18T08:45:22.909Z,935.29
2022-11-18T08:46:22.928Z,935.32
2022-11-18T08:47:22.952Z,935.32
2022-11-18T08:48:22.959Z,935.33
2022-11-18T08:49:23.736Z,935.34
2022-11-18T08:50:22.981Z,935.37
2022-11-18T08:51:23.001Z,935.41
2022-11-18T08:52:23.015Z,935.41
2022-11-18T08:53:23.027Z,935.41
2022-11-18T08:54:23.045Z,935.42
2022-11-18T08:55:23.059Z,935.46
2022-11-18T08:56:23.087Z,935.47
2022-11-18T08:57:23.087Z,935.51
2022-11-18T08:58:23.098Z,935.53
2022-11-18T08:59:23.112Z,935.58
2022-11-18T09:00:23.128Z,935.57
2022-11-18T09:01:23.212Z,935.59
2022-11-18T09:02:23.172Z,935.58
2022-11-18T09:03:23.176Z,935.61
2022-11-18T09:04:23.185Z,935.63
2022-11-18T09:05:23.203Z,935.61
2022-11-18T09:06:23.224Z,935.59
2022-11-18T09:07:23.291Z,935.61
2022-11-18T09:08:23.244Z,935.67
2022-11-18T09:09:23.599Z,935.62
2022-11-18T09:10:23.313Z,935.65
2022-11-18T09:11:23.286Z,935.68
2022-11-18T09:12:23.325Z,935.69
2022-11-18T09:13:49.879Z,935.66
2022-11-18T09:15:23.347Z,935.72
2022-11-18T09:16:27.684Z,935.68
2022-11-18T09:17:23.374Z,935.71
2022-11-18T09:18:23.386Z,935.72
2022-11-18T09:20:23.506Z,935.76
2022-11-18T09:21:23.441Z,935.75
2022-11-18T09:22:23.485Z,935.76
2022-11-18T09:23:23.474Z,935.75
2022-11-18T09:24:23.478Z,935.72
2022-11-18T09:25:23.489Z,935.74
2022-11-18T09:26:23.506Z,935.71
2022-11-18T09:27:23.529Z,935.71
2022-11-18T09:28:23.572Z,935.72
2022-11-18T09:29:23.552Z,935.77
2022-11-18T09:30:23.568Z,935.75
2022-11-18T09:31:23.586Z,935.77
2022-11-18T09:32:23.592Z,935.79
2022-11-18T09:33:23.608Z,935.78
2022-11-18T09:34:23.643Z,935.82
2022-11-18T09:35:23.634Z,935.83
2022-11-18T09:36:23.650Z,935.83
2022-11-18T09:37:23.676Z,935.82
2022-11-18T09:38:23.676Z,935.90
2022-11-18T09:39:23.694Z,935.89
2022-11-18T09:40:23.704Z,935.87
2022-11-18T09:41:23.721Z,935.95
2022-11-18T09:42:23.736Z,935.95
2022-11-18T09:43:23.765Z,935.96
2022-11-18T09:44:23.785Z,935.95
2022-11-18T09:45:24.875Z,935.95
2022-11-18T09:46:23.791Z,935.97
2022-11-18T09:47:23.810Z,936.00
2022-11-18T09:48:23.821Z,935.95
2022-11-18T09:49:23.871Z,936.00
2022-11-18T09:50:52.357Z,935.98
2022-11-18T09:51:23.868Z,936.01
2022-11-18T09:52:23.882Z,936.00
2022-11-18T09:53:23.918Z,936.04
2022-11-18T09:54:23.926Z,936.05
2022-11-18T09:55:23.929Z,936.07
2022-11-18T09:56:23.995Z,936.08
2022-11-18T09:57:23.957Z,936.07
2022-11-18T09:58:23.965Z,936.07
2022-11-18T09:59:23.982Z,936.08
2022-11-18T10:00:24.016Z,936.09
2022-11-18T10:01:26.265Z,936.11
2022-11-18T10:02:24.025Z,936.07
2022-11-18T10:03:24.038Z,936.09
2022-11-18T10:04:24.054Z,936.14
2022-11-18T10:05:24.070Z,936.11
2022-11-18T10:06:24.176Z,936.14
2022-11-18T10:07:24.116Z,936.18
2022-11-18T10:08:24.132Z,936.14
2022-11-18T10:09:24.127Z,936.18
2022-11-18T10:10:24.141Z,936.17
2022-11-18T10:11:24.153Z,936.13
2022-11-18T10:12:24.167Z,936.15
2022-11-18T10:13:24.185Z,936.18
2022-11-18T10:14:24.196Z,936.14
2022-11-18T10:15:24.209Z,936.18
2022-11-18T10:16:24.306Z,936.17
2022-11-18T10:17:24.245Z,936.19
2022-11-18T10:18:52.878Z,936.19
2022-11-18T10:19:24.267Z,936.22
2022-11-18T10:20:24.285Z,936.22
2022-11-18T10:21:24.299Z,936.18
2022-11-18T10:22:24.968Z,936.19
2022-11-18T10:23:24.328Z,936.19
2022-11-18T10:24:24.345Z,936.16
2022-11-18T10:25:24.356Z,936.25
2022-11-18T10:26:24.368Z,936.20
2022-11-18T10:27:24.385Z,936.16
2022-11-18T10:28:24.397Z,936.18
2022-11-18T10:29:24.414Z,936.22
2022-11-18T10:30:24.836Z,936.23
2022-11-18T10:31:24.443Z,936.21
2022-11-18T10:32:24.491Z,936.21
2022-11-18T10:33:24.476Z,936.26
2022-11-18T10:34:24.483Z,936.27
2022-11-18T10:35:24.496Z,936.26
2022-11-18T10:36:24.513Z,936.27
2022-11-18T10:37:34.711Z,936.26
2022-11-18T10:38:24.556Z,936.28
2022-11-18T10:39:24.556Z,936.29
2022-11-18T10:40:24.579Z,936.26
2022-11-18T10:41:24.585Z,936.25
2022-11-18T10:42:24.602Z,936.29
2022-11-18T10:43:24.625Z,936.29
2022-11-18T10:44:24.631Z,936.30
2022-11-18T10:45:24.650Z,936.28
2022-11-18T10:46:24.659Z,936.34
2022-11-18T10:47:24.670Z,936.35
2022-11-18T10:48:24.773Z,936.34
2022-11-18T10:49:24.703Z,936.36
2022-11-18T10:50:24.718Z,936.40
2022-11-18T10:51:24.733Z,936.40
2022-11-18T10:52:24.744Z,936.33
2022-11-18T10:53:24.759Z,936.34
2022-11-18T10:54:24.770Z,936.35
2022-11-18T10:55:24.786Z,936.34
2022-11-18T10:56:24.802Z,936.37
2022-11-18T10:57:24.818Z,936.42
2022-11-18T10:58:24.865Z,936.40
2022-11-18T10:59:24.841Z,936.41
2022-11-18T11:00:24.857Z,936.44
2022-11-18T11:01:24.929Z,936.46
2022-11-18T11:02:24.889Z,936.49
2022-11-18T11:03:24.901Z,936.49
2022-11-18T11:04:24.939Z,936.46
2022-11-18T11:05:24.931Z,936.49
2022-11-18T11:06:24.944Z,936.48
2022-11-18T11:07:25.102Z,936.49
2022-11-18T11:08:38.214Z,936.51
2022-11-18T11:09:24.990Z,936.50
2022-11-18T11:10:25.008Z,936.51
2022-11-18T11:11:25.018Z,936.56
2022-11-18T11:12:25.031Z,936.55
2022-11-18T11:13:25.050Z,936.60
2022-11-18T11:14:25.058Z,936.52
2022-11-18T11:15:25.073Z,936.56
2022-11-18T11:16:26.545Z,936.55
2022-11-18T11:17:25.159Z,936.57
2022-11-18T11:18:25.117Z,936.54
2022-11-18T11:19:25.134Z,936.57
2022-11-18T11:20:25.168Z,936.57
2022-11-18T11:21:25.310Z,936.57
2022-11-18T11:22:25.174Z,936.58
2022-11-18T11:23:25.188Z,936.62
2022-11-18T11:24:25.204Z,936.58
2022-11-18T11:25:25.341Z,936.62
2022-11-18T11:28:25.261Z,936.61
2022-11-18T11:29:25.272Z,936.62
2022-11-18T11:30:25.288Z,936.65
2022-11-18T11:31:25.300Z,936.63
2022-11-18T11:32:25.319Z,936.62
2022-11-18T11:33:25.333Z,936.63
2022-11-18T11:34:25.344Z,936.63
2022-11-18T11:35:25.358Z,936.61
2022-11-18T11:36:25.494Z,936.65
2022-11-18T11:37:25.392Z,936.60
2022-11-18T11:38:25.406Z,936.55
2022-11-18T11:39:25.417Z,936.59
2022-11-18T11:40:25.439Z,936.61
2022-11-18T11:41:25.449Z,936.60
2022-11-18T11:42:25.459Z,936.62
2022-11-18T11:43:25.475Z,936.63
2022-11-18T11:44:25.492Z,936.62
2022-11-18T11:45:25.503Z,936.66
2022-11-18T11:46:25.516Z,936.61
2022-11-18T11:47:25.534Z,936.60
2022-11-18T11:48:25.557Z,936.62
2022-11-18T11:49:25.565Z,936.60
2022-11-18T11:50:25.580Z,936.62
2022-11-18T11:51:25.591Z,936.71
2022-11-18T11:52:25.635Z,936.66
2022-11-18T11:53:25.623Z,936.67
2022-11-18T11:54:25.637Z,936.67
2022-11-18T11:55:25.650Z,936.68
2022-11-18T11:56:25.663Z,936.72
2022-11-18T11:57:25.679Z,936.70
2022-11-18T11:58:25.694Z,936.72
2022-11-18T11:59:25.710Z,936.73
2022-11-18T12:00:25.723Z,936.76
2022-11-18T12:01:25.736Z,936.76
2022-11-18T12:02:25.828Z,936.75
2022-11-18T12:03:25.768Z,936.76
2022-11-18T12:04:25.781Z,936.71
2022-11-18T12:05:25.793Z,936.71
2022-11-18T12:06:25.815Z,936.72
2022-11-18T12:07:25.903Z,936.78
2022-11-18T12:08:25.874Z,936.75
2022-11-18T12:09:25.850Z,936.74
2022-11-18T12:10:25.868Z,936.77
2022-11-18T12:11:25.883Z,936.71
2022-11-18T12:12:25.896Z,936.74
2022-11-18T12:13:25.912Z,936.73
2022-11-18T12:14:25.927Z,936.68
2022-11-18T12:15:25.942Z,936.66
2022-11-18T12:16:25.957Z,936.69
2022-11-18T12:17:25.968Z,936.69
2022-11-18T12:18:25.989Z,936.65
2022-11-18T12:19:25.996Z,936.75
2022-11-18T12:20:26.014Z,936.68
2022-11-18T12:21:27.362Z,936.67
2022-11-18T12:22:26.039Z,936.69
2022-11-18T12:23:26.057Z,936.64
2022-11-18T12:24:26.097Z,936.68
2022-11-18T12:25:26.102Z,936.69
2022-11-18T12:26:26.101Z,936.62
2022-11-18T12:27:26.113Z,936.67
2022-11-18T12:28:26.130Z,936.67
2022-11-18T12:29:26.140Z,936.66
2022-11-18T12:30:26.156Z,936.65
2022-11-18T12:31:26.170Z,936.68
2022-11-18T12:32:26.187Z,936.58